Time;durP1;ratioP1;P1;durP2;ratioP2;P2;SDS_P1;SDS_P2;PMS_P1;PMS_P2;Temp;Humidity;BMP_temperature;BMP_pressure;BME280_temperature;BME280_humidity;BME280_pressure;Samples;Min_cycle;Max_cycle;Signal;HPM_P1;HPM_P2
2022/11/11 00:00:30;;;;;;;7.72;3.15;;;10.10;80.80;;;;;;5114372;28;20034;-62
2022/11/11 00:02:57;;;;;;;6.28;2.40;;;9.90;81.00;;;;;;5113734;28;20031;-62
2022/11/11 00:05:24;;;;;;;8.73;2.95;;;9.90;81.40;;;;;;5113978;28;20023;-61
2022/11/11 00:07:52;;;;;;;9.20;3.00;;;10.00;81.20;;;;;;5113352;28;20067;-62
2022/11/11 00:10:18;;;;;;;7.03;2.78;;;10.10;80.90;;;;;;5112321;28;20119;-62
2022/11/11 00:12:43;;;;;;;7.10;2.80;;;10.00;81.00;;;;;;5113731;28;20095;-60
2022/11/11 00:15:09;;;;;;;7.47;3.42;;;10.10;81.20;;;;;;5112278;28;20077;-62
2022/11/11 00:25:52;;;;;;;4.43;2.58;;;9.90;81.50;;;;;;5114472;28;20030;-63
2022/11/11 00:28:18;;;;;;;6.38;2.30;;;9.90;81.50;;;;;;5114241;28;20023;-61
2022/11/11 00:30:44;;;;;;;11.35;2.88;;;9.90;81.50;;;;;;5117256;28;20452;-62
2022/11/11 00:33:10;;;;;;;6.95;2.67;;;9.90;81.70;;;;;;5118517;28;20487;-61
2022/11/11 00:35:54;;;;;;;8.35;5.10;;;9.90;81.90;;;;;;5117862;28;20016;-61
2022/11/11 00:41:04;;;;;;;8.52;3.22;;;9.90;81.90;;;;;;5118418;28;20073;-61
2022/11/11 00:43:30;;;;;;;9.43;3.25;;;9.90;81.80;;;;;;5118477;28;20464;-61
2022/11/11 00:50:57;;;;;;;5.20;3.13;;;9.80;81.90;;;;;;5118236;28;20019;-61
2022/11/11 00:51:26;;;;;;;8.00;3.30;;;9.80;82.30;;;;;;5118562;28;20061;-61
2022/11/11 00:53:52;;;;;;;8.85;2.72;;;9.70;82.30;;;;;;5116683;28;20123;-61
2022/11/11 00:56:18;;;;;;;5.15;2.55;;;9.70;82.60;;;;;;5117458;28;20059;-60
2022/11/11 00:58:44;;;;;;;7.75;3.05;;;9.80;82.50;;;;;;5118134;28;20023;-62
2022/11/11 01:01:09;;;;;;;8.10;3.10;;;9.60;82.60;;;;;;5116962;28;20356;-62
2022/11/11 01:03:35;;;;;;;6.20;3.35;;;9.70;82.40;;;;;;5118112;28;20049;-61
2022/11/11 01:06:04;;;;;;;12.93;2.88;;;9.70;82.50;;;;;;5118021;28;20062;-62
2022/11/11 01:08:31;;;;;;;5.00;2.85;;;9.70;82.70;;;;;;5117612;28;20047;-62
2022/11/11 01:10:57;;;;;;;5.40;3.05;;;9.70;82.60;;;;;;5117813;28;20155;-62
2022/11/11 01:13:26;;;;;;;6.03;3.67;;;9.60;82.70;;;;;;5117773;28;20033;-61
2022/11/11 01:16:00;;;;;;;9.75;4.38;;;9.70;82.50;;;;;;5117660;28;20016;-63
2022/11/11 01:18:27;;;;;;;11.40;2.85;;;9.60;82.80;;;;;;5116288;28;20028;-63
2022/11/11 01:21:02;;;;;;;7.40;4.10;;;9.60;82.90;;;;;;5117472;28;20039;-61
2022/11/11 01:23:29;;;;;;;7.35;3.80;;;9.50;82.90;;;;;;5117517;28;20042;-62
2022/11/11 01:26:20;;;;;;;8.35;3.60;;;9.50;82.90;;;;;;5117345;28;20361;-62
2022/11/11 01:28:54;;;;;;;9.75;3.72;;;9.60;82.90;;;;;;5116538;28;20051;-62
2022/11/11 01:31:22;;;;;;;6.68;3.28;;;9.40;83.10;;;;;;5117605;28;20031;-61
2022/11/11 01:33:48;;;;;;;7.90;3.50;;;9.40;83.20;;;;;;5116114;28;20020;-63
2022/11/11 01:36:18;;;;;;;6.85;3.72;;;9.50;83.20;;;;;;5116867;28;20031;-62
2022/11/11 01:38:47;;;;;;;;;;;9.50;83.00;;;;;;5116993;28;20413;-61
2022/11/11 01:41:34;;;;;;;8.77;3.65;;;9.50;82.70;;;;;;5115812;28;20281;-62
2022/11/11 01:44:01;;;;;;;11.00;4.00;;;9.50;83.10;;;;;;5116588;28;20411;-62
2022/11/11 01:46:48;;;;;;;8.88;3.38;;;9.60;83.00;;;;;;5116146;28;20074;-64
2022/11/11 01:49:32;;;;;;;9.90;3.85;;;9.60;83.00;;;;;;5116214;28;20027;-61
2022/11/11 01:52:08;;;;;;;6.93;4.05;;;9.60;82.60;;;;;;5114794;28;20356;-61
2022/11/11 01:54:37;;;;;;;5.70;3.30;;;9.60;82.90;;;;;;5116415;28;20023;-61
2022/11/11 01:57:20;;;;;;;10.15;4.00;;;9.70;82.20;;;;;;5115910;28;20456;-62
2022/11/11 01:59:49;;;;;;;5.50;3.25;;;9.60;82.30;;;;;;5116339;28;20493;-61
2022/11/11 02:02:26;;;;;;;9.63;3.00;;;9.50;82.50;;;;;;5114537;28;20475;-62
2022/11/11 02:07:38;;;;;;;5.05;2.85;;;9.60;82.20;;;;;;5115700;28;20541;-61
2022/11/11 02:10:07;;;;;;;5.55;2.83;;;9.70;81.80;;;;;;5115775;28;20069;-62
2022/11/11 02:15:17;;;;;;;11.57;3.05;;;9.70;81.60;;;;;;5115920;28;20054;-63
2022/11/11 02:17:45;;;;;;;7.82;3.30;;;9.80;81.20;;;;;;5116242;28;20028;-62
2022/11/11 02:20:14;;;;;;;8.98;2.97;;;9.80;81.10;;;;;;5116100;28;20498;-62
2022/11/11 02:22:52;;;;;;;3.97;2.40;;;9.70;81.20;;;;;;5114398;28;20107;-61
2022/11/11 02:25:23;;;;;;;4.35;2.35;;;9.70;81.10;;;;;;5115405;28;20020;-61
2022/11/11 02:27:50;;;;;;;7.35;3.58;;;9.80;81.20;;;;;;5114522;28;20463;-62
2022/11/11 02:30:52;;;;;;;4.20;2.88;;;9.70;81.20;;;;;;5115534;28;20375;-61
2022/11/11 02:33:18;;;;;;;4.70;2.15;;;9.80;80.90;;;;;;5115280;28;20016;-61
2022/11/11 02:35:57;;;;;;;4.57;2.17;;;9.80;80.80;;;;;;5113904;28;20027;-61
2022/11/11 02:38:24;;;;;;;7.60;3.40;;;9.80;81.10;;;;;;5115610;28;20099;-61
2022/11/11 02:43:34;;;;;;;6.65;2.38;;;9.80;81.20;;;;;;5116024;28;20087;-61
2022/11/11 02:46:03;;;;;;;3.70;2.58;;;9.80;80.80;;;;;;5116182;28;20110;-60
2022/11/11 02:48:28;;;;;;;5.13;2.70;;;9.80;80.80;;;;;;5115791;28;20038;-60
2022/11/11 02:50:54;;;;;;;4.53;2.38;;;9.80;80.90;;;;;;5114643;28;20464;-61
2022/11/11 02:53:20;;;;;;;4.93;2.30;;;9.70;80.80;;;;;;5114569;28;20024;-61
2022/11/11 02:55:46;;;;;;;3.95;2.45;;;9.80;80.80;;;;;;5113545;28;20072;-61
2022/11/11 02:58:13;;;;;;;5.32;2.65;;;9.80;80.80;;;;;;5114909;28;20036;-61
2022/11/11 03:00:40;;;;;;;6.45;2.90;;;9.70;81.10;;;;;;5113536;28;20037;-61
2022/11/11 03:03:05;;;;;;;4.25;2.22;;;9.80;80.80;;;;;;5115060;28;20386;-62
2022/11/11 03:05:31;;;;;;;8.00;2.22;;;9.70;80.90;;;;;;5115106;28;20107;-61
2022/11/11 03:07:57;;;;;;;5.30;3.00;;;9.80;80.90;;;;;;5114465;28;20047;-61
2022/11/11 03:10:22;;;;;;;5.65;2.63;;;9.70;81.10;;;;;;5114550;28;20024;-62
2022/11/11 03:12:48;;;;;;;8.30;2.95;;;9.60;81.20;;;;;;5114554;28;20024;-62
2022/11/11 03:15:14;;;;;;;10.38;2.95;;;9.60;81.40;;;;;;5114546;28;20332;-62
2022/11/11 03:17:39;;;;;;;4.72;2.80;;;9.70;81.00;;;;;;5114389;28;20032;-60
2022/11/11 03:23:01;;;;;;;7.03;3.35;;;9.60;81.20;;;;;;5114721;28;20027;-60
2022/11/11 03:25:39;;;;;;;6.80;3.30;;;9.50;81.50;;;;;;5114229;28;20020;-61
2022/11/11 03:28:09;;;;;;;5.28;3.45;;;9.60;81.30;;;;;;5113920;28;20032;-63
2022/11/11 03:30:41;;;;;;;5.70;2.50;;;9.50;81.30;;;;;;5114273;28;20115;-61
2022/11/11 03:33:07;;;;;;;7.25;3.03;;;9.50;81.40;;;;;;5112879;28;20066;-61
2022/11/11 03:35:33;;;;;;;5.13;2.67;;;9.30;81.60;;;;;;5114136;28;20024;-61
2022/11/11 03:38:14;;;;;;;6.45;2.67;;;9.30;82.10;;;;;;5114751;28;20024;-61
2022/11/11 03:40:42;;;;;;;5.80;2.83;;;9.30;82.10;;;;;;5113578;28;20023;-61
2022/11/11 03:43:07;;;;;;;9.95;2.78;;;9.30;82.10;;;;;;5115217;28;20020;-60
2022/11/11 03:45:33;;;;;;;7.68;2.92;;;9.50;82.00;;;;;;5114074;28;20410;-61
2022/11/11 03:47:59;;;;;;;5.07;2.72;;;9.30;82.00;;;;;;5114110;28;20073;-61
2022/11/11 03:50:24;;;;;;;4.90;2.80;;;9.40;82.20;;;;;;5113897;28;20052;-61
2022/11/11 03:52:50;;;;;;;10.07;3.65;;;9.30;82.00;;;;;;5113701;28;20020;-61
2022/11/11 03:55:16;;;;;;;6.72;3.33;;;9.30;82.70;;;;;;5112517;28;20034;-60
2022/11/11 03:57:45;;;;;;;8.95;3.05;;;9.30;82.30;;;;;;5112864;28;20542;-62
2022/11/11 04:00:25;;;;;;;6.88;3.00;;;9.20;82.50;;;;;;5095594;28;20559;-60
2022/11/11 04:11:23;;;;;;;4.90;2.90;;;9.00;83.00;;;;;;5114255;28;20168;-61
2022/11/11 04:16:33;;;;;;;7.65;2.45;;;9.00;83.00;;;;;;5114109;28;20391;-61
2022/11/11 04:21:43;;;;;;;5.28;2.75;;;9.00;82.80;;;;;;5113541;28;20031;-61
2022/11/11 04:27:00;;;;;;;7.20;3.05;;;9.10;82.90;;;;;;5113984;28;20596;-62
2022/11/11 04:29:27;;;;;;;6.55;2.97;;;9.00;82.90;;;;;;5113737;28;20023;-61
2022/11/11 04:34:43;;;;;;;7.22;3.25;;;8.90;83.50;;;;;;5113829;28;20172;-62
2022/11/11 04:37:09;;;;;;;4.47;2.70;;;8.80;83.70;;;;;;5113510;28;20051;-61
2022/11/11 04:42:19;;;;;;;6.63;3.05;;;9.00;83.20;;;;;;5113540;28;20038;-63
2022/11/11 04:47:28;;;;;;;4.95;3.15;;;8.90;83.50;;;;;;5113826;28;20038;-61
2022/11/11 04:49:54;;;;;;;10.00;3.60;;;8.90;83.50;;;;;;5113319;28;20107;-61
2022/11/11 04:52:25;;;;;;;9.35;3.13;;;8.90;83.40;;;;;;5113388;28;20463;-64
2022/11/11 04:57:41;;;;;;;9.50;4.00;;;8.80;83.80;;;;;;5113397;28;20027;-62
2022/11/11 05:00:08;;;;;;;5.88;3.80;;;8.70;84.00;;;;;;5113436;28;20072;-63
2022/11/11 05:05:18;;;;;;;6.13;3.63;;;8.70;84.40;;;;;;5113471;28;20120;-62
2022/11/11 05:10:28;;;;;;;8.02;3.30;;;8.50;84.70;;;;;;5113463;28;20092;-60
2022/11/11 05:21:19;;;;;;;10.02;4.55;;;8.60;85.10;;;;;;5113068;28;20020;-60
2022/11/11 05:21:20;;;;;;;5.55;3.40;;;8.70;84.40;;;;;;5116969;28;20073;-64
2022/11/11 05:26:31;;;;;;;10.27;4.63;;;8.80;83.70;;;;;;5116784;28;20498;-61
2022/11/11 05:28:56;;;;;;;11.43;3.97;;;8.80;83.40;;;;;;5117113;28;20019;-61
2022/11/11 05:31:23;;;;;;;10.25;4.53;;;8.80;83.60;;;;;;5116543;28;20027;-62
2022/11/11 05:33:48;;;;;;;9.93;4.03;;;8.70;83.80;;;;;;5116635;28;20024;-61
2022/11/11 05:36:14;;;;;;;9.27;3.90;;;8.60;84.00;;;;;;5116406;28;20035;-61
2022/11/11 05:38:40;;;;;;;5.30;3.40;;;8.50;84.20;;;;;;5116956;28;20027;-64
2022/11/11 05:41:07;;;;;;;9.07;3.65;;;8.50;84.30;;;;;;5116774;28;20372;-62
2022/11/11 05:43:32;;;;;;;12.07;3.63;;;8.60;84.40;;;;;;5116434;28;20034;-63
2022/11/11 05:45:58;;;;;;;7.97;3.92;;;8.60;84.20;;;;;;5116242;28;20024;-62
2022/11/11 05:48:23;;;;;;;6.55;3.38;;;8.60;83.80;;;;;;5116886;28;20416;-61
2022/11/11 05:50:49;;;;;;;7.80;3.60;;;8.50;84.00;;;;;;5115046;28;20097;-61
2022/11/11 05:53:15;;;;;;;6.70;2.92;;;8.60;84.00;;;;;;5116029;28;20486;-62
2022/11/11 05:55:40;;;;;;;8.82;4.18;;;8.70;83.60;;;;;;5114648;28;20068;-61
2022/11/11 05:58:06;;;;;;;7.80;3.75;;;8.70;83.50;;;;;;5115808;28;20440;-62
2022/11/11 06:00:32;;;;;;;6.85;3.35;;;8.70;83.60;;;;;;5115851;28;20046;-61
2022/11/11 06:03:07;;;;;;;10.02;3.40;;;8.70;83.30;;;;;;5114519;28;20024;-63
2022/11/11 06:05:35;;;;;;;5.55;3.10;;;8.80;83.10;;;;;;5116082;28;20034;-62
2022/11/11 06:08:01;;;;;;;7.03;4.35;;;8.80;83.20;;;;;;5115763;28;20048;-62
2022/11/11 06:10:29;;;;;;;9.75;3.92;;;8.60;83.20;;;;;;5115701;28;20038;-61
2022/11/11 06:13:03;;;;;;;8.48;3.65;;;8.70;83.20;;;;;;5115657;28;20026;-61
2022/11/11 06:15:30;;;;;;;11.90;4.88;;;8.70;83.20;;;;;;5115582;28;20024;-61
2022/11/11 06:17:55;;;;;;;12.85;5.38;;;8.60;83.20;;;;;;5115290;28;20020;-61
2022/11/11 06:20:21;;;;;;;11.88;3.65;;;8.70;83.10;;;;;;5115591;28;20387;-61
2022/11/11 06:22:55;;;;;;;9.65;4.60;;;8.70;83.40;;;;;;5115429;28;20107;-61
2022/11/11 16:08:45;;;;;;;13.15;5.30;;;10.80;75.10;;;;;;5111290;27;20457;-49
2022/11/11 16:11:14;;;;;;;13.15;5.90;;;10.80;75.80;;;;;;5111464;28;20064;-49
2022/11/11 16:13:53;;;;;;;15.23;5.53;;;10.70;75.90;;;;;;5111008;28;20043;-48
2022/11/11 16:16:25;;;;;;;12.02;5.78;;;10.80;76.20;;;;;;5111062;28;20016;-49
2022/11/11 16:19:11;;;;;;;12.20;5.45;;;10.70;75.50;;;;;;5110476;28;20024;-50
2022/11/11 16:21:40;;;;;;;8.85;5.43;;;10.60;76.70;;;;;;5110798;28;20024;-49
2022/11/11 16:24:22;;;;;;;13.63;6.32;;;10.90;76.20;;;;;;5111045;28;20174;-53
2022/11/11 16:26:47;;;;;;;9.40;5.57;;;10.90;75.20;;;;;;5110636;28;20409;-49
2022/11/11 16:29:14;;;;;;;17.42;7.72;;;10.80;75.80;;;;;;5110577;28;20035;-48
2022/11/11 16:31:42;;;;;;;14.75;7.40;;;10.80;75.90;;;;;;5110421;28;20035;-49
2022/11/11 16:34:26;;;;;;;13.05;8.05;;;10.70;76.10;;;;;;5110319;28;20065;-50
2022/11/11 16:37:02;;;;;;;18.00;8.57;;;10.70;76.80;;;;;;5110278;28;20073;-49
2022/11/11 16:39:33;;;;;;;13.40;7.78;;;10.70;76.70;;;;;;5110947;28;20043;-51
2022/11/11 16:42:00;;;;;;;;;;;10.50;76.70;;;;;;5093464;28;20019;-49
2022/11/11 16:44:34;;;;;;;20.42;9.98;;;10.30;77.40;;;;;;5111417;28;20328;-49
2022/11/11 16:47:00;;;;;;;24.70;11.65;;;10.10;77.80;;;;;;5092065;28;20028;-49
2022/11/11 16:49:40;;;;;;;33.47;13.00;;;10.00;78.40;;;;;;5110056;28;20073;-50
2022/11/11 16:52:11;;;;;;;49.80;31.73;;;10.00;79.50;;;;;;5110662;28;20024;-53
2022/11/11 16:54:47;;;;;;;27.52;11.57;;;9.90;79.30;;;;;;5091748;28;20038;-51
2022/11/11 16:57:18;;;;;;;20.48;11.05;;;9.90;80.20;;;;;;5075828;28;20341;-52
2022/11/11 16:59:53;;;;;;;13.18;7.32;;;9.80;80.00;;;;;;5110204;28;20467;-52
2022/11/11 17:02:24;;;;;;;15.18;7.45;;;10.00;80.40;;;;;;5092099;28;20068;-51
2022/11/11 17:04:55;;;;;;;18.73;7.13;;;10.20;79.30;;;;;;5109834;28;20028;-50
2022/11/11 17:07:30;;;;;;;13.98;7.40;;;10.30;78.80;;;;;;5109490;28;20047;-49
2022/11/11 17:10:08;;;;;;;16.98;8.05;;;10.30;79.00;;;;;;5092024;28;20426;-49
2022/11/11 17:12:37;;;;;;;16.83;8.60;;;10.20;79.30;;;;;;5110408;28;20349;-50
2022/11/11 17:15:04;;;;;;;13.00;7.35;;;10.10;79.60;;;;;;5109844;28;20099;-51
2022/11/11 17:17:30;;;;;;;13.43;7.47;;;10.10;79.70;;;;;;5109460;28;20023;-51
2022/11/11 17:19:59;;;;;;;18.38;8.10;;;10.00;79.90;;;;;;5096581;28;20047;-49
2022/11/11 17:22:24;;;;;;;19.95;8.23;;;10.00;80.10;;;;;;5095786;28;20027;-51
2022/11/11 17:24:50;;;;;;;20.38;8.02;;;9.90;80.20;;;;;;5096133;28;20043;-47
2022/11/11 17:27:16;;;;;;;14.35;8.25;;;9.80;80.40;;;;;;5096286;28;20035;-50
2022/11/11 17:29:42;;;;;;;21.67;8.40;;;9.80;80.50;;;;;;5077621;28;20085;-51
2022/11/11 17:32:07;;;;;;;17.52;9.80;;;9.70;80.80;;;;;;5095493;28;20399;-50
2022/11/11 17:34:33;;;;;;;19.95;11.13;;;9.80;81.00;;;;;;5095827;28;20107;-51
2022/11/11 17:36:59;;;;;;;18.63;9.98;;;9.80;81.00;;;;;;5095398;28;20338;-49
2022/11/11 17:39:24;;;;;;;18.63;9.43;;;9.50;81.30;;;;;;5077859;28;20443;-53
2022/11/11 17:41:50;;;;;;;15.23;10.23;;;9.70;81.40;;;;;;5095941;28;20111;-50
2022/11/11 17:44:16;;;;;;;19.73;11.07;;;9.60;81.50;;;;;;5096647;28;20020;-53
2022/11/11 17:46:42;;;;;;;19.05;10.57;;;9.50;81.70;;;;;;5095778;28;20028;-50
2022/11/11 17:49:08;;;;;;;21.80;11.68;;;9.40;82.00;;;;;;5095895;28;20020;-50
2022/11/11 17:51:34;;;;;;;31.08;14.25;;;9.40;82.00;;;;;;5078130;28;20074;-52
2022/11/11 17:53:59;;;;;;;24.58;13.27;;;9.30;82.30;;;;;;5077428;28;20024;-52
2022/11/11 17:56:25;;;;;;;20.95;10.88;;;9.30;82.40;;;;;;5077796;28;20388;-53
2022/11/11 17:58:52;;;;;;;25.52;14.60;;;9.30;82.40;;;;;;5095726;28;20023;-51
2022/11/11 18:01:18;;;;;;;20.55;12.63;;;9.20;82.80;;;;;;5095752;28;20016;-51
2022/11/11 18:03:44;;;;;;;23.25;12.63;;;9.10;82.60;;;;;;5077349;28;20020;-51
2022/11/11 18:06:10;;;;;;;23.13;11.75;;;9.10;83.00;;;;;;5077103;28;20310;-49
2022/11/11 18:08:36;;;;;;;22.75;12.73;;;8.90;83.30;;;;;;5094956;28;20101;-50
2022/11/11 18:11:05;;;;;;;31.08;17.40;;;9.00;83.10;;;;;;5095205;28;20471;-52
2022/11/11 18:13:40;;;;;;;21.48;12.98;;;8.90;83.20;;;;;;5095064;28;20016;-52
2022/11/11 18:16:16;;;;;;;16.45;10.82;;;8.90;83.50;;;;;;5095366;28;20102;-50
2022/11/11 18:18:43;;;;;;;15.90;10.52;;;8.80;83.60;;;;;;5077325;28;20025;-54
2022/11/11 18:21:09;;;;;;;15.30;10.82;;;8.80;83.70;;;;;;5096380;28;20054;-49
2022/11/11 18:23:37;;;;;;;21.63;11.40;;;8.80;83.80;;;;;;5076618;28;20032;-61
2022/11/11 18:26:03;;;;;;;23.40;13.43;;;8.80;83.60;;;;;;5076625;28;20028;-63
2022/11/11 18:28:36;;;;;;;21.10;12.00;;;8.80;83.90;;;;;;5095042;28;20511;-61
2022/11/11 18:31:08;;;;;;;19.23;12.43;;;8.80;84.00;;;;;;5094491;28;20020;-62
2022/11/11 18:33:34;;;;;;;25.70;13.57;;;8.70;83.90;;;;;;5095092;28;20061;-63
2022/11/11 18:36:05;;;;;;;23.15;13.27;;;8.60;84.30;;;;;;5076796;28;20024;-63
2022/11/11 18:38:31;;;;;;;23.08;12.35;;;8.60;84.40;;;;;;5094937;28;20129;-62
2022/11/11 18:41:07;;;;;;;27.75;15.38;;;8.60;84.70;;;;;;5094386;28;20467;-62
2022/11/11 18:43:39;;;;;;;33.53;18.20;;;8.60;84.50;;;;;;5094699;28;20024;-62
2022/11/11 18:46:06;;;;;;;34.00;15.63;;;8.60;84.70;;;;;;5094529;28;20035;-64
2022/11/11 18:48:32;;;;;;;35.45;16.25;;;8.50;84.80;;;;;;5094714;28;20088;-62
2022/11/11 18:50:58;;;;;;;31.60;16.23;;;8.50;84.80;;;;;;5076833;28;20028;-62
2022/11/11 18:53:24;;;;;;;30.25;14.93;;;8.50;84.80;;;;;;5094910;28;20017;-63
2022/11/11 18:55:49;;;;;;;40.10;17.90;;;8.40;84.80;;;;;;5094462;28;20027;-63
2022/11/11 18:58:15;;;;;;;45.95;21.38;;;8.40;85.00;;;;;;5094554;28;20031;-64
2022/11/11 19:00:43;;;;;;;41.47;19.48;;;8.40;85.10;;;;;;5095192;28;20466;-61
2022/11/11 19:03:09;;;;;;;35.08;20.50;;;8.40;85.20;;;;;;5076886;28;20472;-62
2022/11/11 19:05:35;;;;;;;35.22;18.88;;;8.30;85.00;;;;;;5094503;28;20027;-62
2022/11/11 19:08:00;;;;;;;37.55;18.85;;;8.30;85.30;;;;;;5072140;28;20159;-62
2022/11/11 19:10:26;;;;;;;38.38;18.83;;;8.20;85.50;;;;;;5073955;28;20488;-62
2022/11/11 19:12:52;;;;;;;32.40;17.20;;;8.20;85.80;;;;;;5072984;28;20380;-62
2022/11/11 19:15:17;;;;;;;27.05;15.77;;;8.20;85.70;;;;;;5073917;28;20021;-62
2022/11/11 19:17:43;;;;;;;36.80;17.67;;;8.10;85.90;;;;;;5073899;28;20475;-62
2022/11/11 19:20:09;;;;;;;28.27;16.13;;;8.20;86.10;;;;;;5073770;28;20126;-63
2022/11/11 19:22:38;;;;;;;30.42;14.60;;;8.20;86.00;;;;;;5073509;28;20116;-62
2022/11/11 19:25:05;;;;;;;34.55;15.10;;;8.30;86.10;;;;;;5072290;28;20028;-61
2022/11/11 19:27:31;;;;;;;37.42;17.35;;;8.30;85.90;;;;;;5074006;28;20036;-63
2022/11/11 19:29:57;;;;;;;27.10;16.55;;;8.20;86.00;;;;;;5072228;28;20021;-62
2022/11/11 19:32:22;;;;;;;33.35;17.75;;;8.20;85.90;;;;;;5071841;28;20560;-64
2022/11/11 19:34:48;;;;;;;34.08;18.17;;;8.20;85.70;;;;;;5073340;28;20100;-61
2022/11/11 19:37:18;;;;;;;32.97;18.90;;;8.10;85.90;;;;;;5073448;28;20423;-63
2022/11/11 19:39:44;;;;;;;34.35;17.83;;;8.10;85.90;;;;;;5073597;28;20546;-61
2022/11/11 19:42:09;;;;;;;32.55;17.50;;;8.00;86.10;;;;;;5073892;28;20028;-62
2022/11/11 19:44:35;;;;;;;25.83;16.45;;;8.00;86.10;;;;;;5073690;28;20463;-62
2022/11/11 19:47:01;;;;;;;28.40;17.13;;;7.90;86.50;;;;;;5073523;28;20028;-62
2022/11/11 19:49:28;;;;;;;35.97;18.55;;;8.10;86.30;;;;;;5073646;28;20047;-61
2022/11/11 19:51:53;;;;;;;28.42;17.05;;;8.00;86.30;;;;;;5073573;28;20023;-61
2022/11/11 19:54:19;;;;;;;33.13;17.75;;;8.10;86.30;;;;;;5073847;28;20025;-61
2022/11/11 19:56:45;;;;;;;39.83;18.20;;;8.00;86.10;;;;;;5073322;28;20407;-61
2022/11/11 19:59:10;;;;;;;24.98;15.88;;;8.00;86.20;;;;;;5073226;28;20063;-62
2022/11/11 20:01:36;;;;;;;29.00;16.85;;;7.90;86.30;;;;;;5072190;28;20108;-63
2022/11/11 20:04:02;;;;;;;33.75;18.17;;;7.90;86.40;;;;;;5073846;28;20062;-63
2022/11/11 20:06:33;;;;;;;32.92;18.13;;;7.90;86.40;;;;;;5074935;28;20362;-62
2022/11/11 20:09:02;;;;;;;32.80;17.15;;;7.80;86.50;;;;;;5093646;28;20464;-62
2022/11/11 20:11:28;;;;;;;24.95;15.00;;;7.80;86.80;;;;;;5093361;28;20028;-62
2022/11/11 20:13:55;;;;;;;29.42;16.08;;;7.80;86.90;;;;;;5093368;28;20043;-62
2022/11/11 20:16:21;;;;;;;23.52;14.45;;;7.80;86.90;;;;;;5093624;28;20020;-62
2022/11/11 20:18:47;;;;;;;30.10;15.43;;;7.80;86.90;;;;;;5093268;28;20115;-61
2022/11/11 20:21:13;;;;;;;27.52;15.43;;;7.80;86.80;;;;;;5075256;28;20088;-61
2022/11/11 20:23:40;;;;;;;30.73;15.30;;;7.80;87.00;;;;;;5093410;28;20028;-61
2022/11/11 20:26:08;;;;;;;22.58;14.70;;;7.80;87.10;;;;;;5075210;28;20028;-61
2022/11/11 20:28:34;;;;;;;25.77;15.07;;;7.80;86.90;;;;;;5093080;28;20059;-62
2022/11/11 20:31:11;;;;;;;32.53;16.30;;;7.80;87.00;;;;;;5093260;28;20063;-61
2022/11/11 20:33:37;;;;;;;23.27;14.75;;;7.80;87.10;;;;;;5093370;28;20092;-62
2022/11/11 20:36:09;;;;;;;28.20;15.05;;;7.80;87.10;;;;;;5075150;28;20368;-62
2022/11/11 20:38:35;;;;;;;26.55;14.77;;;7.80;87.00;;;;;;5093039;28;20050;-63
2022/11/11 20:41:06;;;;;;;31.88;16.67;;;7.80;86.80;;;;;;5093221;28;20388;-63
2022/11/11 20:43:33;;;;;;;35.72;17.55;;;7.80;86.70;;;;;;5093099;28;20043;-64
2022/11/11 20:46:07;;;;;;;27.83;15.27;;;7.80;86.90;;;;;;5093086;28;20024;-64
2022/11/11 20:48:33;;;;;;;27.88;17.52;;;7.70;86.80;;;;;;5074753;28;20028;-63
2022/11/11 20:51:05;;;;;;;28.48;15.40;;;7.70;86.90;;;;;;5093511;28;20028;-62
2022/11/11 20:53:30;;;;;;;24.08;15.85;;;7.70;87.20;;;;;;5093476;28;20488;-62
2022/11/11 20:56:04;;;;;;;28.02;14.73;;;7.70;87.10;;;;;;5096802;28;20024;-63
2022/11/11 20:58:32;;;;;;;27.60;15.07;;;7.70;87.00;;;;;;5097285;28;20028;-64
2022/11/11 21:01:03;;;;;;;23.90;15.30;;;7.60;87.00;;;;;;5096862;28;20107;-63
2022/11/11 21:03:30;;;;;;;;;;;7.60;87.00;;;;;;5097040;28;20474;-60
2022/11/11 21:06:05;;;;;;;25.88;14.05;;;7.60;87.10;;;;;;5096863;28;19957;-62
2022/11/11 21:08:33;;;;;;;26.02;13.57;;;7.60;87.20;;;;;;5074629;28;20127;-62
2022/11/11 21:10:59;;;;;;;21.40;13.15;;;7.60;87.00;;;;;;5076327;28;20032;-62
2022/11/11 21:13:26;;;;;;;31.25;14.82;;;7.40;87.20;;;;;;5076529;28;20464;-63
2022/11/11 21:15:51;;;;;;;30.45;15.10;;;7.40;87.40;;;;;;5076390;28;20025;-63
2022/11/11 21:18:17;;;;;;;74.18;27.77;;;7.40;87.40;;;;;;5076428;28;20078;-62
2022/11/11 21:20:44;;;;;;;36.67;19.05;;;7.40;87.50;;;;;;5076621;28;20071;-64
2022/11/11 21:23:10;;;;;;;24.80;14.30;;;7.50;87.40;;;;;;5076433;28;20463;-62
2022/11/11 21:25:35;;;;;;;24.25;14.68;;;7.40;87.20;;;;;;5076557;28;20070;-63
2022/11/11 21:28:04;;;;;;;25.40;13.25;;;7.40;87.20;;;;;;5076193;28;20091;-63
2022/11/11 21:30:30;;;;;;;23.77;13.85;;;7.50;87.00;;;;;;5076215;28;20056;-63
2022/11/11 21:32:56;;;;;;;25.08;14.40;;;7.40;87.10;;;;;;5076464;28;20021;-62
2022/11/11 21:35:23;;;;;;;21.65;13.77;;;7.40;87.10;;;;;;5076099;28;20070;-63
2022/11/11 21:37:50;;;;;;;22.13;12.70;;;7.50;87.10;;;;;;5074700;28;20495;-62
2022/11/11 21:40:15;;;;;;;29.35;14.48;;;7.50;87.10;;;;;;5076125;28;20031;-62
2022/11/11 21:42:48;;;;;;;23.83;13.52;;;7.50;87.00;;;;;;5076322;28;20069;-63
2022/11/11 21:45:14;;;;;;;22.95;12.18;;;7.40;86.80;;;;;;5076985;28;20021;-62
2022/11/11 21:47:40;;;;;;;22.98;12.80;;;7.30;86.70;;;;;;5076010;28;20039;-63
2022/11/11 21:50:05;;;;;;;29.13;13.52;;;7.10;86.90;;;;;;5075804;28;20107;-65
2022/11/11 21:52:31;;;;;;;29.80;13.95;;;7.10;87.10;;;;;;5074975;28;20353;-66
2022/11/11 21:54:57;;;;;;;23.83;14.25;;;7.00;87.30;;;;;;5076370;28;20346;-63
2022/11/11 21:57:23;;;;;;;24.35;12.25;;;6.90;87.20;;;;;;5075615;28;20027;-62
2022/11/11 21:59:49;;;;;;;20.70;12.98;;;6.80;87.60;;;;;;5076410;28;20032;-63
2022/11/11 22:02:14;;;;;;;23.83;12.23;;;6.90;87.60;;;;;;5075938;28;20054;-62
2022/11/11 22:04:40;;;;;;;23.23;11.48;;;7.00;87.40;;;;;;5075615;28;20033;-62
2022/11/11 22:07:06;;;;;;;27.33;12.13;;;7.00;87.00;;;;;;5082594;28;20063;-61
2022/11/11 22:09:31;;;;;;;21.02;12.85;;;7.00;87.00;;;;;;5095686;28;20020;-62
2022/11/11 22:11:57;;;;;;;22.77;12.70;;;7.00;87.10;;;;;;5095448;28;20016;-63
2022/11/11 22:14:22;;;;;;;25.35;11.68;;;6.80;87.30;;;;;;5095297;28;20035;-62
2022/11/11 22:16:48;;;;;;;18.73;11.82;;;6.80;87.30;;;;;;5077191;28;20020;-63
2022/11/11 22:19:15;;;;;;;24.02;12.27;;;6.80;87.40;;;;;;5095694;28;20482;-61
2022/11/11 22:21:42;;;;;;;22.40;13.27;;;6.80;87.50;;;;;;5095211;28;20024;-63
2022/11/11 22:24:10;;;;;;;17.58;10.70;;;6.80;87.50;;;;;;5094859;28;20032;-63
2022/11/11 22:26:40;;;;;;;23.00;11.77;;;6.80;87.40;;;;;;5094753;28;20379;-62
2022/11/11 22:29:08;;;;;;;19.55;11.90;;;6.80;87.40;;;;;;5095781;28;20483;-61
2022/11/11 22:31:36;;;;;;;17.20;10.10;;;6.80;87.60;;;;;;5095022;28;20020;-62
2022/11/11 22:34:04;;;;;;;19.02;10.82;;;6.80;87.70;;;;;;5095156;28;20035;-62
2022/11/11 22:36:31;;;;;;;18.70;11.55;;;6.80;87.70;;;;;;5095759;28;20024;-62
2022/11/11 22:38:59;;;;;;;22.45;11.85;;;6.80;87.40;;;;;;5094882;28;20043;-62
2022/11/11 22:41:30;;;;;;;23.73;12.98;;;6.70;87.50;;;;;;5095049;28;20042;-61
2022/11/11 22:43:56;;;;;;;20.73;13.15;;;6.70;87.50;;;;;;5095042;28;20478;-62
2022/11/11 22:46:23;;;;;;;24.73;13.05;;;6.60;87.70;;;;;;5094676;28;20103;-62
2022/11/11 22:49:01;;;;;;;17.65;9.48;;;6.70;87.80;;;;;;5095132;28;20040;-61
2022/11/11 22:51:28;;;;;;;18.65;10.10;;;6.70;87.80;;;;;;5060499;28;20065;-63
2022/11/11 22:54:01;;;;;;;13.27;8.45;;;6.70;87.80;;;;;;5095753;28;20031;-63
2022/11/11 22:56:28;;;;;;;14.30;9.63;;;6.70;87.80;;;;;;5097302;28;20096;-61
2022/11/11 22:58:54;;;;;;;18.20;11.07;;;6.80;87.60;;;;;;5096707;28;20024;-62
2022/11/11 23:01:28;;;;;;;13.80;8.27;;;6.70;87.40;;;;;;5096866;28;20466;-62
2022/11/11 23:03:55;;;;;;;17.70;10.27;;;6.70;87.60;;;;;;5096011;28;20020;-62
2022/11/11 23:06:34;;;;;;;16.70;9.07;;;6.70;87.50;;;;;;5076695;28;20047;-61
2022/11/11 23:09:00;;;;;;;19.92;10.32;;;6.70;87.50;;;;;;5094698;28;20031;-61
2022/11/11 23:11:28;;;;;;;17.10;10.40;;;6.70;87.80;;;;;;5094797;28;20077;-61
2022/11/11 23:14:05;;;;;;;18.33;9.98;;;6.60;87.80;;;;;;5094882;28;20028;-62
2022/11/11 23:16:31;;;;;;;14.35;9.43;;;6.60;87.60;;;;;;5093881;28;20042;-66
2022/11/11 23:18:58;;;;;;;15.27;9.38;;;6.60;87.60;;;;;;5094303;28;20056;-63
2022/11/11 23:21:25;;;;;;;17.40;9.02;;;6.60;87.40;;;;;;5094179;28;20031;-61
2022/11/11 23:23:51;;;;;;;15.73;9.15;;;6.60;87.50;;;;;;5094331;28;20487;-61
2022/11/11 23:26:26;;;;;;;16.92;8.07;;;6.70;87.50;;;;;;5094331;28;20354;-61
2022/11/11 23:28:52;;;;;;;13.60;7.40;;;6.60;87.40;;;;;;5094181;28;20063;-62
2022/11/11 23:31:29;;;;;;;11.25;7.75;;;6.60;87.40;;;;;;5094242;28;20479;-61
2022/11/11 23:33:57;;;;;;;15.93;9.57;;;6.70;87.60;;;;;;5094086;28;20404;-61
2022/11/11 23:36:25;;;;;;;16.42;10.10;;;6.60;87.40;;;;;;5093889;28;20106;-62
2022/11/11 23:38:51;;;;;;;21.33;9.68;;;6.30;87.30;;;;;;5093695;28;20036;-61
2022/11/11 23:41:17;;;;;;;17.60;8.98;;;6.40;87.80;;;;;;5093817;28;20046;-61